Hauptseite
METAR-TAF:

METAR-TAF

Flughäfen :

Fliegerhorst Nörvenich

Nörvenich, Deutschland

Breite: 50-50N, Länge: 006-40E, Höhe: 118 m

Beobachtung

Neuester Wetterbericht von vor 1 Stunde und 2 Minuten, um 15:20 UTC
Wind 4 kt aus Südwest
Temperatur 19°C
Luftfeuchtigkeit 40%
Luftdruck 1015 hPa
Sichtweite 10 km oder mehr
Aufgelockert bewölkt in der Höhe von 6000 ft
Aufgelockert bewölkt in der Höhe von 24000 ft

METAR: ETNN 131520Z 22004KT 9999 SCT060 SCT240 19/05 Q1015 BLU+FCST CNL

Zeit: 18:22 (16:22 UTC)

Prognose

Neuester Wetterbericht von vor 3 Stunden und 5 Minuten, um 13:17 UTC
Gültige Prognose vom 13 um 14 UTC bis 13 um 23 UTC
Wind 5 kt aus Süd
Sichtweite 10 km oder mehr
Aufgelockert bewölkt in der Höhe von 5000 ft
Aufgelockert bewölkt in der Höhe von 20000 ft

TAF: ETNN 131317Z 1314/1323 18005KT 9999 NSW SCT050 SCT200

Wetterbeobachtungen und Prognosen von mehr als 4000 Flughäfen (METAR und TAF Bericht).

Die verfügbaren Stationen werden durch gelbe und rote Markierungen auf der Karte dargestellt.

Führen Sie die Maus auf sie, um den Namen der Station zu sehen.

Darauf klicken, um die Beobachtung von Wetterbeobachtungen und Prognosen zu sehen.

Um die Karte zu ändern : klicken Sie auf den grünen Tasten mit einem schwarzen Kreuz Zum Vergrößern, auf den grünen Button mit einem Gedankenstrich zu verkleinern, oder auf die grünen Pfeile für benachbarte Karten.


METAR-TAF: